联合标准

 找回密码
 立即注册
搜索
热搜: DIN 标准 ISO
收藏本版 |订阅

电气电子(IEEE) 今日: 0|主题: 258|排名: 11 

作者 回复/查看 最后发表
IEEE C 57.12.29-2014 底座安装设备—沿海环境用外壳完整性IEEE标准 中文版 匿名 2019-12-8 079 匿名 2019-12-8 12:52
IEEE 575-2014 额定电压为5 kV~500 kV的单导体电力电缆用屏蔽和护套的互联IEEE指南 中文版 匿名 2019-12-8 077 匿名 2019-12-8 08:40
IEEE 260.1-2004(R2010) IEEE标准-测量单位的字母符号(SI单位、习惯英寸-磅单位及某些其他单位) 中文版 匿名 2019-12-8 087 匿名 2019-12-8 06:57
IEEE C 57.12.28-2014 底座安装设备—外壳完整性IEEE标准 中文版 匿名 2019-12-8 077 匿名 2019-12-8 03:32
IEEE Std 1547.4-2011 带电力系统的分布式电源岛状物系统的IEEE设计、操作和整合指南 中文版 匿名 2019-12-8 093 匿名 2019-12-8 03:01
IEEE Std 1547.2-2008 IEEE Std 1547TMIEEE应用指南,电力系统与分布式电源互连的IEEE标准 中文版 匿名 2019-12-8 090 匿名 2019-12-8 00:09
IEEE Std 112-2004 多相感应电动机和发电机的IEEE标准测试程序 中文版 匿名 2019-12-7 085 匿名 2019-12-7 18:03
IEEE P2791/D3-2019 Draft Standard for Bioinformatics Analyses Generated by High- 匿名 2019-11-25 1106 leeglee 2019-11-26 10:05
IEEE 8802-22-2015/Amd 1-2017 Information technology. Telecommunications and info 匿名 2019-11-25 088 匿名 2019-11-25 13:19
IEEE 1547 ERTA-2018 Errata to Interconnection and Interoperability of Distribute 匿名 2019-11-25 074 匿名 2019-11-25 13:12
IEEE C57.19.04-2018 Performance Characteristics and Dimensions for High Current 匿名 2019-11-25 067 匿名 2019-11-25 13:11
IEEE 11073-20701-2018 Health informatics—Point-of-care medical device communicat 匿名 2019-11-25 077 匿名 2019-11-25 12:56
IEEE 1547 SERIES-2019 Interconnection and Interoperability of Distributed Energy 匿名 2019-11-25 090 匿名 2019-11-25 12:52
IEEE 844.4/C293.4-2019 IEEE/CSA Standard for Impedance Heating of Pipelines and 匿名 2019-11-25 074 匿名 2019-11-25 12:48
IEEE 11073-10425-2019 Health informatics - Personal health device communication 匿名 2019-11-25 085 匿名 2019-11-25 12:46
IEEE 1679.2-2018 Guide for the Characterization and Evaluation of Sodium-Beta Ba 匿名 2019-11-25 074 匿名 2019-11-25 12:46
IEEE C63.5-2017/Cor 1-2019 American National Standard for Electromagnetic Compat 匿名 2019-11-25 072 匿名 2019-11-25 12:46
IEEE 1818-2017 Guide for the Design of Low-Voltage Auxiliary Systems for Electri 匿名 2019-11-25 071 匿名 2019-11-25 12:38
IEEE 1636.1-2018 Software Interface for Maintenance Information Collection and A 匿名 2019-11-25 049 匿名 2019-11-25 12:36
IEEE C57.12.20-2017 Overhead-Type Distribution Transformers 500 kVA and Smaller; 匿名 2019-11-25 054 匿名 2019-11-25 12:31
下一页 »

快速发帖

还可输入 80 个字符
您需要登录后才可以发帖 登录 | 立即注册

本版积分规则

QQ|手机版|小黑屋|联合标准 ( 闽ICP备19022192号

GMT+8, 2020-8-13 08:14 , Processed in 0.109375 second(s), 11 queries .

Powered by Discuz! X3.4

© 2019 UNSTD

返回顶部 返回版块